This is the latest recevied weather packets stored in our database for station/object JE3XST-13. If no packets are shown the sender has not sent any weather packets the latest 10 day(s).
| Time | Temp. | Humidity | Pressure | Rain* | Wind** | Luminosity | Snow |
|---|---|---|---|---|---|---|---|
| 1788013080 | 25.56° C | 96% | 1008 hPa | 0 mm | - | - | - |
| 1788011280 | 25.56° C | 95% | 1008.1 hPa | 0 mm | - | - | - |
| 1788009479 | 26.11° C | 95% | 1008.1 hPa | 0 mm | - | - | - |
| 1788007677 | 26.11° C | 95% | 1008 hPa | 0 mm | - | - | - |
| 1788005876 | 26.11° C | 95% | 1007.9 hPa | 0 mm | - | - | - |
| 1788004495 | 26.11° C | 95% | 1008 hPa | 0 mm | - | - | - |
| 1788002695 | 26.67° C | 95% | 1007.9 hPa | 0.76 mm | - | - | - |
| 1788000893 | 26.67° C | 94% | 1007.7 hPa | 2.03 mm | - | - | - |
| 1787999094 | 26.67° C | 94% | 1007.6 hPa | 1.52 mm | - | - | - |
| 1787997293 | 26.67° C | 93% | 1007.3 hPa | 1.27 mm | - | - | - |
| 1787995493 | 26.67° C | 93% | 1006.9 hPa | 1.52 mm | - | - | - |
| 1787993692 | 27.78° C | 90% | 1006.9 hPa | 0.51 mm | - | - | - |
| 1787991891 | 27.78° C | 89% | 1006.5 hPa | 0 mm | - | - | - |
| 1787990461 | 27.78° C | 87% | 1006.6 hPa | 6.1 mm | - | - | - |
| 1787988660 | 27.78° C | 88% | 1006.3 hPa | 6.1 mm | - | - | - |
| 1787986859 | 31.11° C | 72% | 1006.3 hPa | 0 mm | - | - | - |
| 1787985058 | 31.11° C | 75% | 1006.1 hPa | 0 mm | - | - | - |
| 1787983257 | 31.11° C | 74% | 1006 hPa | 0 mm | - | - | - |
| 1787981455 | 31.11° C | 75% | 1006.5 hPa | 0 mm | - | - | - |
| 1787979654 | 30.56° C | 79% | 1006.7 hPa | 0 mm | - | - | - |
| 1787977686 | 29.44° C | 84% | 1007 hPa | 0 mm | - | - | - |
| 1787975885 | 28.89° C | 85% | 1007.4 hPa | 7.62 mm | - | - | - |
| 1787974083 | 28.89° C | 87% | 1007.5 hPa | 7.62 mm | - | - | - |
| 1787972282 | 28.33° C | 88% | 1007.6 hPa | 0.25 mm | - | - | - |
| 1787970481 | 27.78° C | 92% | 1007.7 hPa | 0.25 mm | - | - | - |
* Rain latest hour (hover to see other rain measurements)
** Current wind speed in m/s (hover to see current wind gust speed)